Aérodrome :
LOGIN :

S'inscrire | Disclaimer

   EN    FR    IT 

 










Légende :    VFR   VFR Marginal   IFR   IFR Intensif   IFR Très Intensif
Visi : 
Plafond : 
>= 8 km
>= 3000ft
5 à 8 km
1000 à 3000 ft
1500m à 5 km
500 à 1000 ft
800 à 1500m
200 à 500 ft
< 800m
< 200 ft
Symboles :   Orages  Brouillard  Fortes neiges  Fortes précipitations  Vent > 20 kt
SIGMETs :   Divers  Orages  Givrage  Turbulence  Onde Orograph.  Cendres Volcan.






- Altitude de l'aérodrome : 238 ft
- Code IATA : FAB


EGLF - Farnborough

DERNIER METAR :
  • 070150Z AUTO 25011KT 9999 OVC040 09/06 Q1011

METARs EXPIRÉS :
  • 070120Z AUTO 25011KT 9999 OVC040/// 09/06 Q1011
  • 070050Z AUTO 25011KT 9999 OVC038/// 09/05 Q1010
  • 070020Z AUTO 26009KT 9999 OVC036/// 09/05 Q1010
  • 062350Z AUTO 26010KT 9999 OVC037/// 09/06 Q1010
  • 062320Z AUTO 25010KT 210V270 9999 OVC036/// 09/06 Q1010

Prévision TAF périmée.
ATIS : +44 09063 800 400 (*282)



MET'MAP, la Météo Aéronautique d'un coup d'oeil ! - Copyright ORBIFLY Décembre 2007 - Disclaimer

ORBIFLY MET'MAP TEAM :

Programmation & Développement : Alexandra Zaïnal
Sur une idée originale de : Baudouin d'Aumeries
Assistance à la programmation : Marc-Olivier Méhu
Soutien technique & logistique : Manuel Goepfert

Contact : metmap@orbifly.com




SOURCES & CREDITS :

   NOAA